Time;durP1;ratioP1;P1;durP2;ratioP2;P2;SDS_P1;SDS_P2;PMS_P1;PMS_P2;Temp;Humidity;BMP_temperature;BMP_pressure;BME280_temperature;BME280_humidity;BME280_pressure;Samples;Min_cycle;Max_cycle;Signal;HPM_P1;HPM_P2
2022/12/21 00:01:20;;;;;;;36.23;28.70;;;;;;;3.98;100.00;99796.66;5001375;28;20304;-66
2022/12/21 00:03:45;;;;;;;34.43;27.57;;;;;;;4.10;100.00;99799.69;5008336;28;20255;-67
2022/12/21 00:06:12;;;;;;;34.27;27.50;;;;;;;4.04;100.00;99796.47;5010316;28;20281;-66
2022/12/21 00:08:39;;;;;;;29.40;26.20;;;;;;;4.10;100.00;99799.69;5013766;28;20272;-65
2022/12/21 00:11:05;;;;;;;35.03;28.80;;;;;;;4.15;100.00;99796.09;5021957;28;20343;-66
2022/12/21 00:13:31;;;;;;;35.87;28.60;;;;;;;4.26;100.00;99800.03;5012770;28;20181;-66
2022/12/21 00:16:03;;;;;;;32.53;28.30;;;;;;;4.25;100.00;99800.91;5005138;28;20230;-65
2022/12/21 00:18:31;;;;;;;41.03;29.73;;;;;;;4.19;100.00;99801.94;5013508;28;20195;-65
2022/12/21 00:20:58;;;;;;;32.97;27.37;;;;;;;4.20;100.00;99809.53;5005595;28;20234;-65
2022/12/21 00:23:23;;;;;;;34.13;27.30;;;;;;;4.16;100.00;99795.22;5012443;28;20213;-65
2022/12/21 00:25:48;;;;;;;42.67;30.73;;;;;;;4.14;100.00;99796.16;5013791;28;20268;-65
2022/12/21 00:28:14;;;;;;;35.07;28.67;;;;;;;4.13;100.00;99797.03;5013190;28;20186;-65
2022/12/21 00:30:39;;;;;;;32.47;27.43;;;;;;;4.20;100.00;99794.25;5002201;28;20234;-65
2022/12/21 00:33:04;;;;;;;36.33;28.13;;;;;;;4.28;100.00;99794.00;5011882;28;20592;-65
2022/12/21 00:35:29;;;;;;;33.87;27.20;;;;;;;4.11;100.00;99799.63;5013642;28;20183;-65
2022/12/21 00:37:54;;;;;;;33.03;26.23;;;;;;;4.15;100.00;99792.75;5012976;28;20180;-65
2022/12/21 00:40:20;;;;;;;36.83;29.23;;;;;;;4.15;100.00;99790.19;5005266;28;20190;-65
2022/12/21 00:42:45;;;;;;;36.37;29.23;;;;;;;4.25;100.00;99790.72;5026059;28;20187;-65
2022/12/21 00:45:10;;;;;;;36.83;27.80;;;;;;;4.19;100.00;99790.03;5013497;28;20184;-65
2022/12/21 00:47:36;;;;;;;38.27;28.07;;;;;;;4.29;100.00;99788.03;5012911;28;20200;-65
2022/12/21 00:50:01;;;;;;;31.97;26.47;;;;;;;4.36;100.00;99779.28;5012953;28;20178;-65
2022/12/21 00:52:27;;;;;;;36.30;28.67;;;;;;;4.30;100.00;99779.47;4985990;28;20236;-64
2022/12/21 00:54:52;;;;;;;32.87;26.37;;;;;;;4.44;100.00;99784.13;5012970;28;20188;-65
2022/12/21 00:57:18;;;;;;;34.03;28.83;;;;;;;4.44;100.00;99784.13;5012727;28;20718;-65
2022/12/21 00:59:43;;;;;;;40.13;28.23;;;;;;;4.42;100.00;99778.25;5005934;28;20669;-64
2022/12/21 01:02:08;;;;;;;40.27;27.97;;;;;;;4.28;100.00;99788.06;5018070;28;20288;-64
2022/12/21 01:04:33;;;;;;;38.83;28.20;;;;;;;4.28;100.00;99790.59;5012802;28;20193;-64
2022/12/21 01:06:59;;;;;;;42.47;27.93;;;;;;;4.30;100.00;99787.13;5012955;28;20191;-64
2022/12/21 01:09:24;;;;;;;46.07;29.07;;;;;;;4.23;100.00;99783.13;5012911;28;20226;-64
2022/12/21 01:11:49;;;;;;;45.53;28.27;;;;;;;4.23;100.00;99788.22;5016495;28;20559;-64
2022/12/21 01:14:14;;;;;;;36.20;25.37;;;;;;;4.38;100.00;99784.34;5014441;28;20261;-63
2022/12/21 01:16:40;;;;;;;35.43;26.63;;;;;;;4.23;100.00;99783.13;5012400;28;20296;-64
2022/12/21 01:19:06;;;;;;;34.03;28.13;;;;;;;4.44;100.00;99784.13;5012632;28;20928;-64
2022/12/21 01:21:32;;;;;;;31.50;24.67;;;;;;;4.27;100.00;99786.41;5000972;28;20241;-64
2022/12/21 01:23:59;;;;;;;31.73;24.27;;;;;;;4.42;100.00;99782.53;5000648;28;20677;-65
2022/12/21 01:26:24;;;;;;;33.13;24.80;;;;;;;4.29;100.00;99785.47;5007160;28;20288;-64
2022/12/21 01:28:50;;;;;;;31.87;24.63;;;;;;;4.39;100.00;99790.25;5008697;28;20184;-64
2022/12/21 01:31:15;;;;;;;29.73;24.47;;;;;;;4.51;100.00;99793.22;5011893;28;20223;-63
2022/12/21 01:33:40;;;;;;;31.53;24.77;;;;;;;4.51;100.00;99795.78;5008101;28;20213;-65
2022/12/21 01:36:08;;;;;;;29.90;24.40;;;;;;;4.30;100.00;99799.03;5011200;28;20191;-64
2022/12/21 01:38:34;;;;;;;30.47;23.43;;;;;;;4.45;100.00;99801.06;5027535;28;20189;-64
2022/12/21 01:41:00;;;;;;;29.77;24.40;;;;;;;4.41;100.00;99799.50;5012891;28;20408;-64
2022/12/21 01:43:49;;;;;;;38.07;26.33;;;;;;;4.18;100.00;99801.09;5003170;28;20608;-64
2022/12/21 01:46:23;;;;;;;31.23;24.00;;;;;;;4.38;100.00;99798.78;5007093;28;20171;-64
2022/12/21 01:48:56;;;;;;;30.90;25.60;;;;;;;4.45;100.00;99793.44;5010575;28;20182;-64
2022/12/21 01:51:22;;;;;;;28.70;24.60;;;;;;;4.63;100.00;99797.06;5000596;28;20236;-64
2022/12/21 01:54:11;;;;;;;30.77;23.97;;;;;;;4.57;100.00;99794.72;5003995;28;20192;-64
2022/12/21 01:56:38;;;;;;;33.27;22.97;;;;;;;4.49;100.00;99794.13;5010165;28;20214;-65
2022/12/21 01:59:12;;;;;;;34.10;25.70;;;;;;;4.43;100.00;99786.72;5010753;28;20245;-65
2022/12/21 02:01:38;;;;;;;38.03;27.63;;;;;;;4.40;100.00;99787.63;5003866;28;20265;-65
2022/12/21 02:04:06;;;;;;;25.83;23.03;;;;;;;4.38;100.00;99779.25;5014875;28;20680;-64
2022/12/21 02:06:45;;;;;;;32.60;24.03;;;;;;;4.38;100.00;99780.94;5010348;28;20289;-64
2022/12/21 02:09:13;;;;;;;26.33;22.90;;;;;;;4.43;100.00;99779.06;5011978;28;20632;-64
2022/12/21 02:11:39;;;;;;;25.97;23.17;;;;;;;4.46;100.00;99771.34;5000541;28;20227;-64
2022/12/21 02:14:26;;;;;;;29.13;22.13;;;;;;;4.48;100.00;99777.22;5005338;28;20612;-63
2022/12/21 02:17:03;;;;;;;28.07;24.70;;;;;;;4.50;100.00;99777.97;5011022;28;20213;-63
2022/12/21 02:20:26;;;;;;;31.10;24.33;;;;;;;4.56;100.00;99780.31;5012142;28;20543;-63
2022/12/21 02:23:29;;;;;;;27.63;23.60;;;;;;;4.54;100.00;99771.91;4921711;29;20255;-64
2022/12/21 02:26:08;;;;;;;36.63;23.60;;;;;;;4.47;100.00;99770.44;4931726;29;20224;-63
2022/12/21 02:28:57;;;;;;;28.00;23.60;;;;;;;4.26;100.00;99767.75;4932017;29;20206;-63
2022/12/21 02:31:58;;;;;;;25.40;22.20;;;;;;;4.35;100.00;99771.69;4921917;29;20241;-64
2022/12/21 02:34:39;;;;;;;28.00;23.67;;;;;;;4.50;100.00;99770.34;4911205;29;20209;-62
2022/12/21 02:37:17;;;;;;;27.17;21.13;;;;;;;4.39;100.00;99773.28;4920966;29;20185;-62
2022/12/21 02:40:09;;;;;;;25.13;21.47;;;;;;;4.30;100.00;99766.75;4930509;29;20549;-63
2022/12/21 02:45:48;;;;;;;24.40;21.53;;;;;;;4.69;100.00;99768.81;4932494;29;20262;-62
2022/12/21 02:48:32;;;;;;;24.43;21.87;;;;;;;4.60;100.00;99765.75;4915521;29;20309;-62
2022/12/21 02:51:02;;;;;;;24.37;21.20;;;;;;;4.76;100.00;99764.31;4921906;29;20508;-62
2022/12/21 02:53:38;;;;;;;24.83;21.43;;;;;;;4.73;100.00;99764.44;4965839;28;20197;-62
2022/12/21 02:56:03;;;;;;;23.80;21.00;;;;;;;4.86;100.00;99754.63;5013863;28;20210;-63
2022/12/21 02:58:29;;;;;;;26.10;22.07;;;;;;;4.87;100.00;99763.94;5015264;28;20280;-64
2022/12/21 03:01:12;;;;;;;22.00;19.70;;;;;;;4.77;100.00;99757.50;5012220;28;20240;-63
2022/12/21 03:03:56;;;;;;;26.47;20.97;;;;;;;4.87;100.00;99743.53;5003111;28;20186;-64
2022/12/21 03:06:40;;;;;;;29.03;21.93;;;;;;;4.80;100.00;99753.16;5013550;28;20192;-63
2022/12/21 03:09:19;;;;;;;25.50;22.13;;;;;;;4.72;100.00;99756.84;5015306;28;20330;-63
2022/12/21 03:11:55;;;;;;;25.13;22.20;;;;;;;4.78;100.00;99751.53;5023449;28;20565;-64
2022/12/21 03:14:47;;;;;;;23.17;20.43;;;;;;;4.80;100.00;99750.59;5014195;28;20636;-63
2022/12/21 03:17:41;;;;;;;24.23;20.93;;;;;;;4.83;100.00;99749.66;5030022;28;20230;-63
2022/12/21 03:20:23;;;;;;;22.73;20.20;;;;;;;4.83;100.00;99745.38;4994973;28;20184;-64
2022/12/21 03:22:56;;;;;;;24.47;20.47;;;;;;;4.92;100.00;99739.09;5014652;28;20587;-63
2022/12/21 03:25:29;;;;;;;21.13;18.97;;;;;;;4.73;100.00;99738.97;5010517;28;20213;-64
2022/12/21 03:28:01;;;;;;;22.20;19.90;;;;;;;4.79;100.00;99732.81;5000167;28;20217;-63
2022/12/21 03:30:29;;;;;;;22.50;19.73;;;;;;;4.70;100.00;99731.41;5022616;28;20234;-63
2022/12/21 03:33:00;;;;;;;26.23;21.60;;;;;;;4.64;100.00;99729.94;5013815;28;20255;-63
2022/12/21 03:35:32;;;;;;;21.97;19.30;;;;;;;4.76;100.00;99733.72;5013495;28;20191;-63
2022/12/21 03:38:01;;;;;;;23.07;20.60;;;;;;;4.73;100.00;99725.41;5009675;28;20189;-64
2022/12/21 03:40:30;;;;;;;20.53;18.53;;;;;;;4.45;100.00;99736.56;5003211;28;20674;-63
2022/12/21 03:43:03;;;;;;;20.67;18.50;;;;;;;4.24;100.00;99740.69;5029864;28;20226;-64
2022/12/21 03:45:34;;;;;;;21.73;19.43;;;;;;;4.13;100.00;99738.47;5014699;28;20192;-64
2022/12/21 03:48:13;;;;;;;20.47;18.47;;;;;;;3.99;100.00;99744.88;5009587;28;20202;-64
2022/12/21 03:50:44;;;;;;;20.60;18.40;;;;;;;4.20;100.00;99742.50;4996735;28;20620;-64
2022/12/21 03:53:33;;;;;;;20.40;18.20;;;;;;;4.45;100.00;99741.66;5016513;28;20654;-64
2022/12/21 03:56:04;;;;;;;22.23;19.87;;;;;;;4.66;100.00;99735.81;5012665;28;20181;-64
2022/12/21 03:58:31;;;;;;;20.43;18.20;;;;;;;4.57;100.00;99736.13;5014428;28;20635;-64
2022/12/21 04:01:14;;;;;;;20.60;18.50;;;;;;;4.41;100.00;99735.81;4995911;28;20256;-64
2022/12/21 04:03:42;;;;;;;20.47;18.43;;;;;;;4.42;100.00;99734.13;5020685;28;20281;-64
2022/12/21 04:06:13;;;;;;;21.30;19.10;;;;;;;4.44;100.00;99735.75;5008966;28;20186;-65
2022/12/21 04:08:38;;;;;;;23.30;20.37;;;;;;;4.68;100.00;99728.09;5012723;28;20313;-64
2022/12/21 04:11:05;;;;;;;27.13;21.80;;;;;;;4.74;100.00;99727.03;5011771;28;20264;-64
2022/12/21 04:13:30;;;;;;;27.77;20.57;;;;;;;4.92;100.00;99718.72;5021450;28;20198;-64
2022/12/21 04:16:04;;;;;;;23.90;21.40;;;;;;;4.90;100.00;99714.56;5004960;28;20223;-64
2022/12/21 04:21:15;;;;;;;29.13;21.70;;;;;;;5.01;100.00;99723.47;5013206;28;20230;-63
2022/12/21 04:29:12;;;;;;;25.13;19.37;;;;;;;5.09;100.00;99713.00;5012584;28;20200;-65
2022/12/21 04:31:38;;;;;;;23.10;20.30;;;;;;;4.97;100.00;99719.41;5015765;28;20232;-64
2022/12/21 04:34:03;;;;;;;27.27;22.10;;;;;;;4.56;100.00;99719.16;5016527;28;20172;-64
2022/12/21 04:39:12;;;;;;;28.30;22.10;;;;;;;4.90;100.00;99715.41;5013720;28;20207;-63
2022/12/21 04:41:38;;;;;;;27.23;21.53;;;;;;;4.83;100.00;99729.25;5015462;28;20551;-63
2022/12/21 04:44:03;;;;;;;26.70;20.80;;;;;;;4.67;100.00;99727.25;5016203;28;20263;-64
2022/12/21 04:46:28;;;;;;;25.70;22.03;;;;;;;4.95;100.00;99730.50;5012941;28;20187;-64
2022/12/21 04:48:54;;;;;;;27.97;22.17;;;;;;;4.83;100.00;99719.06;5013576;28;20212;-64
2022/12/21 04:51:21;;;;;;;26.90;21.63;;;;;;;4.94;100.00;99726.31;5013150;28;20715;-63
2022/12/21 04:53:47;;;;;;;24.27;19.30;;;;;;;5.11;100.00;99723.13;5011837;28;20638;-64
2022/12/21 04:56:13;;;;;;;24.40;20.80;;;;;;;5.21;100.00;99728.69;5010940;28;20186;-64
2022/12/21 04:58:40;;;;;;;28.57;21.03;;;;;;;5.22;100.00;99722.72;5013122;28;20207;-65
2022/12/21 05:01:10;;;;;;;24.23;20.37;;;;;;;5.13;100.00;99722.16;5001717;28;20226;-64
2022/12/21 05:03:35;;;;;;;24.40;21.70;;;;;;;5.12;100.00;99712.88;5003456;28;20181;-65
2022/12/21 05:06:00;;;;;;;26.50;21.70;;;;;;;5.19;100.00;99713.47;5010834;28;20185;-63
2022/12/21 05:08:26;;;;;;;23.17;19.57;;;;;;;5.29;100.00;99719.88;5013023;28;20255;-64
2022/12/21 05:10:54;;;;;;;27.63;20.87;;;;;;;5.22;100.00;99715.06;5001173;28;20230;-64
2022/12/21 05:13:19;;;;;;;25.90;20.43;;;;;;;5.22;100.00;99715.91;5012313;28;20191;-64
2022/12/21 05:15:45;;;;;;;22.13;19.37;;;;;;;4.98;100.00;99712.56;5011653;28;20187;-63
2022/12/21 05:18:10;;;;;;;27.20;21.33;;;;;;;5.19;100.00;99710.09;5012106;28;20569;-64
2022/12/21 05:20:35;;;;;;;25.90;19.87;;;;;;;5.27;100.00;99710.63;5006860;28;20245;-64
2022/12/21 05:23:00;;;;;;;22.43;19.10;;;;;;;5.23;100.00;99706.53;5023594;28;20189;-64
2022/12/21 05:25:26;;;;;;;25.33;20.53;;;;;;;5.31;100.00;99715.53;5012817;28;20204;-64
2022/12/21 05:27:54;;;;;;;25.50;21.53;;;;;;;5.22;100.00;99712.50;5012639;28;20192;-64
2022/12/21 05:30:19;;;;;;;23.40;20.90;;;;;;;5.32;100.00;99713.81;5003303;28;20181;-63
2022/12/21 05:32:45;;;;;;;22.10;19.40;;;;;;;5.28;100.00;99709.72;5019885;28;20208;-63
2022/12/21 05:36:04;;;;;;;28.53;20.90;;;;;;;5.12;100.00;99707.78;5010855;28;20180;-63
2022/12/21 05:38:30;;;;;;;22.77;19.60;;;;;;;5.07;100.00;99707.09;4980305;28;20273;-65
2022/12/21 05:40:55;;;;;;;24.47;21.00;;;;;;;5.11;100.00;99710.38;5008463;28;20323;-64
2022/12/21 05:43:20;;;;;;;22.10;19.37;;;;;;;5.03;100.00;99699.66;5020158;28;20179;-63
2022/12/21 05:45:46;;;;;;;23.47;20.03;;;;;;;5.08;100.00;99696.03;5012322;28;20203;-64
2022/12/21 05:48:11;;;;;;;24.47;20.33;;;;;;;4.95;100.00;99694.81;5011439;28;20185;-63
2022/12/21 05:50:40;;;;;;;24.17;20.23;;;;;;;4.91;100.00;99693.28;5006495;28;20240;-63
2022/12/21 05:53:07;;;;;;;22.00;19.07;;;;;;;4.94;100.00;99693.19;5014617;28;20191;-64
2022/12/21 05:55:32;;;;;;;27.57;21.97;;;;;;;4.91;100.00;99696.69;5011065;28;20254;-64
2022/12/21 05:57:58;;;;;;;25.20;20.97;;;;;;;4.92;100.00;99697.50;5011425;28;20683;-63
2022/12/21 06:00:23;;;;;;;24.33;19.27;;;;;;;4.99;100.00;99699.75;5004767;28;20233;-65
2022/12/21 06:02:48;;;;;;;24.10;21.00;;;;;;;5.09;100.00;99705.34;5024431;28;20234;-63
2022/12/21 06:05:14;;;;;;;23.87;21.30;;;;;;;5.01;100.00;99700.53;5011951;28;20636;-64
2022/12/21 06:07:39;;;;;;;28.53;22.03;;;;;;;4.97;100.00;99687.97;5011704;28;20631;-63
2022/12/21 06:10:05;;;;;;;27.77;22.40;;;;;;;4.85;100.00;99702.00;5002224;28;20215;-63
2022/12/21 06:12:32;;;;;;;30.23;21.57;;;;;;;5.04;100.00;99709.78;5026722;28;20574;-63
2022/12/21 06:14:58;;;;;;;25.13;22.43;;;;;;;4.95;100.00;99707.56;5007080;28;20215;-64
2022/12/21 06:17:26;;;;;;;25.90;21.50;;;;;;;4.99;100.00;99712.50;5003596;28;20211;-63
2022/12/21 06:19:51;;;;;;;25.03;20.40;;;;;;;4.99;100.00;99702.31;4994394;28;20267;-64
2022/12/21 06:22:16;;;;;;;26.27;20.80;;;;;;;4.98;100.00;99707.47;4992176;28;20321;-63
2022/12/21 06:24:42;;;;;;;24.50;21.20;;;;;;;5.00;100.00;99711.63;5010545;28;20247;-65
2022/12/21 06:27:07;;;;;;;27.10;20.93;;;;;;;5.04;100.00;99711.50;5010287;28;20222;-65
2022/12/21 06:29:32;;;;;;;26.67;21.90;;;;;;;4.90;100.00;99705.22;5009398;28;20191;-64
2022/12/21 06:31:58;;;;;;;27.57;21.07;;;;;;;4.71;100.00;99711.88;5013500;28;20243;-63
2022/12/21 06:34:23;;;;;;;25.90;22.07;;;;;;;4.84;100.00;99719.00;5011194;28;20184;-63
2022/12/21 06:36:48;;;;;;;26.43;21.13;;;;;;;4.82;100.00;99722.50;5009987;28;20606;-62
2022/12/21 06:39:13;;;;;;;30.07;21.63;;;;;;;4.92;100.00;99731.47;5005938;28;20197;-63
2022/12/21 06:41:39;;;;;;;30.53;21.90;;;;;;;5.15;100.00;99722.13;5006708;28;20222;-64
2022/12/21 06:44:04;;;;;;;27.00;20.80;;;;;;;5.21;100.00;99726.16;5013589;28;20191;-63
2022/12/21 06:46:29;;;;;;;32.60;22.10;;;;;;;5.15;100.00;99719.59;5006851;28;20654;-62
2022/12/21 06:48:55;;;;;;;27.37;20.20;;;;;;;5.27;100.00;99723.38;5005926;28;20184;-64
2022/12/21 06:51:23;;;;;;;30.17;23.37;;;;;;;5.42;100.00;99714.28;5002653;28;20282;-64
2022/12/21 06:53:52;;;;;;;29.47;22.47;;;;;;;5.45;100.00;99709.06;5015636;28;20254;-63
2022/12/21 06:56:20;;;;;;;27.87;21.50;;;;;;;5.59;100.00;99711.88;5008043;28;20197;-64
2022/12/21 06:58:48;;;;;;;33.17;23.90;;;;;;;5.71;100.00;99717.41;5025965;28;20194;-63
2022/12/21 07:01:16;;;;;;;32.23;23.07;;;;;;;5.49;100.00;99729.31;5001076;28;20231;-63
2022/12/21 07:03:43;;;;;;;25.87;20.63;;;;;;;5.64;100.00;99727.88;5024245;28;20188;-63
2022/12/21 07:06:10;;;;;;;38.50;22.70;;;;;;;5.72;100.00;99734.38;5006983;28;20195;-63
2022/12/21 07:08:36;;;;;;;36.90;22.40;;;;;;;5.76;100.00;99733.38;5009885;28;20321;-62
2022/12/21 07:11:05;;;;;;;37.17;25.80;;;;;;;5.63;100.00;99733.00;5005110;28;20308;-63
2022/12/21 07:13:30;;;;;;;34.73;23.90;;;;;;;5.59;100.00;99726.38;5009915;28;20178;-63
2022/12/21 07:15:56;;;;;;;30.20;22.40;;;;;;;5.58;100.00;99737.47;5010812;28;20191;-63
2022/12/21 07:18:22;;;;;;;32.63;22.87;;;;;;;5.69;100.00;99735.31;5011533;28;20181;-64
2022/12/21 07:20:48;;;;;;;29.17;23.17;;;;;;;5.73;100.00;99736.88;5002879;28;20237;-64
2022/12/21 07:23:13;;;;;;;30.40;22.27;;;;;;;5.75;100.00;99734.25;5021106;28;20534;-64
2022/12/21 07:25:38;;;;;;;33.40;25.53;;;;;;;5.60;100.00;99733.97;5011464;28;20189;-63
2022/12/21 07:28:04;;;;;;;36.70;26.53;;;;;;;5.58;100.00;99730.66;5011284;28;20201;-64
2022/12/21 07:30:29;;;;;;;34.80;25.70;;;;;;;5.44;100.00;99730.38;5004640;28;20252;-64
2022/12/21 07:32:55;;;;;;;38.33;26.20;;;;;;;5.47;100.00;99728.53;5010121;28;20213;-64
2022/12/21 07:35:24;;;;;;;35.87;24.20;;;;;;;5.62;100.00;99732.19;5011564;28;20186;-64
2022/12/21 07:37:50;;;;;;;29.60;22.43;;;;;;;5.66;100.00;99736.28;5009708;28;20202;-63
2022/12/21 07:40:16;;;;;;;31.23;22.97;;;;;;;5.69;100.00;99739.59;5001369;28;20178;-62
2022/12/21 07:42:43;;;;;;;36.13;24.47;;;;;;;5.75;100.00;99744.47;5028072;28;20188;-62
2022/12/21 07:45:09;;;;;;;32.97;22.93;;;;;;;5.58;100.00;99745.97;5013663;28;20194;-63
2022/12/21 07:47:35;;;;;;;30.73;23.77;;;;;;;5.63;100.00;99746.63;5012094;28;20249;-63
2022/12/21 07:50:01;;;;;;;33.23;21.57;;;;;;;5.60;100.00;99749.28;5011530;28;20216;-63
2022/12/21 07:52:27;;;;;;;27.70;21.87;;;;;;;5.70;100.00;99751.47;4987159;28;20216;-63
2022/12/21 07:54:52;;;;;;;27.03;21.50;;;;;;;5.80;100.00;99751.06;5014654;28;20201;-64
2022/12/21 07:57:17;;;;;;;26.70;21.70;;;;;;;5.78;100.00;99751.97;5009511;28;20202;-64
2022/12/21 07:59:42;;;;;;;21.47;19.20;;;;;;;5.77;100.00;99748.63;5009731;28;20256;-64
2022/12/21 08:02:08;;;;;;;25.10;21.70;;;;;;;5.67;100.00;99754.97;5009467;28;20667;-63
2022/12/21 08:04:34;;;;;;;29.03;23.33;;;;;;;5.73;100.00;99747.09;5013169;28;20264;-63
2022/12/21 08:06:59;;;;;;;27.53;22.47;;;;;;;5.85;100.00;99744.94;5013907;28;20182;-63
2022/12/21 08:09:24;;;;;;;26.27;22.07;;;;;;;5.58;100.00;99748.53;5014276;28;20229;-62
2022/12/21 08:11:49;;;;;;;24.50;20.73;;;;;;;5.69;100.00;99749.81;5017266;28;20306;-68
2022/12/21 08:14:15;;;;;;;23.93;20.97;;;;;;;5.72;100.00;99749.69;5016198;28;20282;-62
2022/12/21 08:16:41;;;;;;;24.37;21.27;;;;;;;5.82;100.00;99751.00;5011528;28;20664;-62
2022/12/21 08:19:06;;;;;;;24.20;21.37;;;;;;;5.88;100.00;99758.41;5010025;28;20193;-63
2022/12/21 08:21:32;;;;;;;23.37;20.87;;;;;;;6.02;100.00;99762.16;5011012;28;20336;-63
2022/12/21 08:23:57;;;;;;;27.17;21.07;;;;;;;6.16;100.00;99761.56;5013428;28;20504;-63
2022/12/21 08:26:22;;;;;;;26.63;21.27;;;;;;;6.18;100.00;99763.16;5013378;28;20187;-63
2022/12/21 08:28:48;;;;;;;23.27;20.73;;;;;;;6.21;100.00;99757.09;5014274;28;20638;-63
2022/12/21 08:31:16;;;;;;;26.40;22.63;;;;;;;6.16;100.00;99753.91;5012849;28;20225;-63
2022/12/21 08:33:42;;;;;;;29.40;23.47;;;;;;;6.17;100.00;99746.19;5000737;28;20253;-63
2022/12/21 08:36:15;;;;;;;30.03;24.97;;;;;;;6.23;100.00;99742.53;5008547;28;20281;-63
2022/12/21 08:38:41;;;;;;;30.10;24.87;;;;;;;6.34;100.00;99745.47;5010166;28;20189;-63
2022/12/21 08:41:06;;;;;;;29.00;24.70;;;;;;;6.31;100.00;99748.13;5011890;28;20613;-63
2022/12/21 08:43:34;;;;;;;27.77;22.23;;;;;;;6.07;100.00;99750.00;5020845;28;20260;-65
2022/12/21 08:46:09;;;;;;;28.37;22.93;;;;;;;6.10;100.00;99747.31;5009952;28;20206;-64
2022/12/21 08:48:34;;;;;;;24.67;21.27;;;;;;;6.44;100.00;99749.28;5009924;28;20189;-64
2022/12/21 08:51:04;;;;;;;24.77;22.07;;;;;;;6.59;100.00;99760.56;5010397;28;20327;-65
2022/12/21 08:53:30;;;;;;;22.73;20.33;;;;;;;6.66;100.00;99753.47;5019435;28;20221;-64
2022/12/21 08:55:57;;;;;;;22.80;20.40;;;;;;;6.81;100.00;99753.69;5008331;28;20191;-64
2022/12/21 08:58:23;;;;;;;23.00;20.53;;;;;;;6.71;100.00;99751.53;5010486;28;20202;-64
2022/12/21 09:00:52;;;;;;;22.13;19.77;;;;;;;6.72;100.00;99739.56;5009021;28;20681;-64
2022/12/21 09:03:17;;;;;;;20.80;18.70;;;;;;;6.58;100.00;99748.69;5013079;28;20202;-64
2022/12/21 09:05:42;;;;;;;20.50;18.27;;;;;;;6.37;100.00;99753.00;5013767;28;20210;-65
2022/12/21 09:08:08;;;;;;;20.17;18.13;;;;;;;6.48;100.00;99754.28;5012227;28;20368;-65
2022/12/21 09:10:33;;;;;;;19.90;17.83;;;;;;;6.53;100.00;99760.00;5007216;28;20260;-63
2022/12/21 09:12:59;;;;;;;21.17;18.97;;;;;;;6.65;100.00;99767.16;5024607;28;20253;-63
2022/12/21 09:15:24;;;;;;;24.20;18.23;;;;;;;6.64;100.00;99773.16;5013326;28;20581;-64
2022/12/21 09:17:50;;;;;;;20.20;18.20;;;;;;;6.50;100.00;99766.09;5013009;28;20665;-64
2022/12/21 09:20:15;;;;;;;40.10;25.50;;;;;;;6.47;100.00;99763.66;5004804;28;20543;-64
2022/12/21 09:22:41;;;;;;;28.70;22.17;;;;;;;6.51;100.00;99766.91;5012124;28;20182;-63
2022/12/21 09:25:07;;;;;;;33.40;26.27;;;;;;;6.49;100.00;99774.66;5013146;28;20568;-63
2022/12/21 09:27:32;;;;;;;27.37;23.50;;;;;;;6.57;100.00;99771.75;5011430;28;20373;-64
2022/12/21 09:29:58;;;;;;;24.67;21.53;;;;;;;6.81;100.00;99776.69;5012518;28;20193;-65
2022/12/21 09:32:23;;;;;;;23.77;20.90;;;;;;;7.03;100.00;99777.41;5018264;28;20233;-64
2022/12/21 09:34:49;;;;;;;24.87;21.63;;;;;;;7.42;100.00;99778.22;5009960;28;20187;-64
2022/12/21 09:37:14;;;;;;;22.93;20.37;;;;;;;7.56;100.00;99780.13;5012488;28;20197;-63
2022/12/21 09:39:40;;;;;;;21.33;18.93;;;;;;;7.66;100.00;99781.31;5027880;28;20179;-64
2022/12/21 09:42:34;;;;;;;19.90;17.90;;;;;;;7.63;100.00;99784.06;5017633;28;20643;-64
2022/12/21 09:45:06;;;;;;;21.43;18.33;;;;;;;7.85;100.00;99786.41;5012397;28;20183;-64
2022/12/21 09:47:54;;;;;;;20.30;18.20;;;;;;;7.95;100.00;99784.25;5027144;28;20186;-63
2022/12/21 09:50:24;;;;;;;21.00;18.90;;;;;;;8.33;100.00;99778.09;5009751;28;20186;-64
2022/12/21 09:52:58;;;;;;;22.47;16.73;;;;;;;8.39;100.00;99790.63;5018620;28;20211;-63
2022/12/21 09:55:27;;;;;;;20.03;17.83;;;;;;;9.65;100.00;99778.00;5007286;28;20187;-65
2022/12/21 09:57:54;;;;;;;20.10;16.40;;;;;;;10.94;100.00;99771.41;5003558;28;20629;-65
2022/12/21 10:00:24;;;;;;;22.67;16.73;;;;;;;11.62;100.00;99763.75;5003738;28;20648;-65
2022/12/21 10:03:07;;;;;;;17.53;15.63;;;;;;;12.41;100.00;99776.69;5024530;28;20178;-65
2022/12/21 10:05:35;;;;;;;21.23;13.90;;;;;;;12.91;100.00;99775.00;5001185;28;20182;-65
2022/12/21 10:08:21;;;;;;;13.13;11.83;;;;;;;12.98;100.00;99769.41;5011154;28;20232;-65
2022/12/21 10:10:59;;;;;;;13.27;10.67;;;;;;;12.66;100.00;99764.72;5007568;28;20226;-65
2022/12/21 10:13:59;;;;;;;14.47;11.50;;;;;;;12.19;100.00;99767.84;5011128;28;20189;-65
2022/12/21 10:16:54;;;;;;;14.23;12.73;;;;;;;11.93;100.00;99767.78;5011621;28;20179;-66
2022/12/21 10:19:38;;;;;;;14.27;12.80;;;;;;;11.91;100.00;99768.78;5011947;28;20183;-65
2022/12/21 10:22:18;;;;;;;15.27;12.93;;;;;;;11.51;100.00;99768.78;5017315;28;20225;-65
2022/12/21 10:24:52;;;;;;;14.50;12.97;;;;;;;11.02;100.00;99770.94;5010776;28;20190;-64
2022/12/21 10:27:27;;;;;;;14.70;13.30;;;;;;;11.03;100.00;99774.34;5011199;28;20191;-64
2022/12/21 10:29:57;;;;;;;15.47;13.70;;;;;;;10.96;100.00;99761.03;5011817;28;20209;-65
2022/12/21 10:32:28;;;;;;;13.03;11.73;;;;;;;10.61;100.00;99758.84;5017271;28;20238;-65
2022/12/21 10:34:54;;;;;;;14.83;13.33;;;;;;;10.49;100.00;99765.53;5007623;28;20191;-64
2022/12/21 10:37:21;;;;;;;16.50;13.63;;;;;;;10.20;100.00;99769.81;5007313;28;20537;-65
2022/12/21 10:39:54;;;;;;;16.30;14.70;;;;;;;9.88;100.00;99772.50;5011813;28;20191;-64
2022/12/21 10:42:37;;;;;;;18.67;14.40;;;;;;;9.95;100.00;99771.25;5017902;28;20703;-63
2022/12/21 10:45:04;;;;;;;16.30;14.57;;;;;;;10.04;100.00;99769.88;5007761;28;20221;-64
2022/12/21 10:47:29;;;;;;;21.20;14.77;;;;;;;10.05;100.00;99771.50;5026470;28;20178;-64
2022/12/21 10:50:04;;;;;;;16.53;13.73;;;;;;;10.07;100.00;99761.97;5011197;28;20171;-64
2022/12/21 10:52:37;;;;;;;18.23;14.53;;;;;;;10.20;100.00;99754.41;5000216;28;20222;-64
2022/12/21 10:55:19;;;;;;;14.83;13.27;;;;;;;10.33;100.00;99763.03;5010881;28;20190;-63
2022/12/21 10:58:03;;;;;;;17.43;14.90;;;;;;;10.41;100.00;99754.91;5008067;28;20194;-64
2022/12/21 11:00:31;;;;;;;17.27;15.53;;;;;;;10.41;100.00;99747.19;4997589;28;20230;-64
2022/12/21 11:03:24;;;;;;;17.77;14.73;;;;;;;10.49;100.00;99753.53;5023208;28;20599;-64
2022/12/21 11:05:49;;;;;;;16.73;14.93;;;;;;;10.59;100.00;99745.25;5003382;28;20589;-66
2022/12/21 11:08:19;;;;;;;15.93;13.53;;;;;;;10.93;100.00;99746.59;5008408;28;20248;-63
2022/12/21 11:10:50;;;;;;;15.57;14.17;;;;;;;11.05;100.00;99739.88;5019055;28;20238;-64
2022/12/21 11:13:17;;;;;;;14.77;13.27;;;;;;;11.04;100.00;99750.25;5007510;28;20653;-67
2022/12/21 11:15:52;;;;;;;16.07;14.47;;;;;;;10.91;100.00;99740.72;5010712;28;20185;-65
2022/12/21 11:18:30;;;;;;;16.63;14.90;;;;;;;10.77;100.00;99743.31;5015669;28;20182;-64
2022/12/21 11:20:56;;;;;;;16.17;14.57;;;;;;;11.10;100.00;99752.44;5016068;28;20252;-62
2022/12/21 11:23:22;;;;;;;17.10;15.47;;;;;;;11.30;100.00;99740.91;5030568;28;20182;-63
2022/12/21 11:25:47;;;;;;;30.77;27.70;;;;;;;11.21;100.00;99744.06;5015281;28;20541;-64
2022/12/21 11:28:18;;;;;;;18.90;16.90;;;;;;;10.97;100.00;99736.94;5013407;28;20193;-64
2022/12/21 11:30:51;;;;;;;20.90;17.93;;;;;;;10.96;100.00;99740.44;5006516;28;20232;-64
2022/12/21 11:33:18;;;;;;;20.80;18.73;;;;;;;11.03;100.00;99728.84;5030196;28;20179;-65
2022/12/21 11:36:06;;;;;;;18.63;16.93;;;;;;;10.78;100.00;99725.22;5013371;28;20342;-65
2022/12/21 11:38:36;;;;;;;15.57;12.67;;;;;;;10.76;100.00;99726.22;5030050;28;20187;-64
2022/12/21 11:41:07;;;;;;;14.37;13.00;;;;;;;10.79;100.00;99719.16;4994392;28;20226;-64
2022/12/21 11:43:43;;;;;;;13.37;12.03;;;;;;;10.72;100.00;99717.88;5016097;28;20185;-64